Time;durP1;ratioP1;P1;durP2;ratioP2;P2;SDS_P1;SDS_P2;PMS_P1;PMS_P2;Temp;Humidity;BMP_temperature;BMP_pressure;BME280_temperature;BME280_humidity;BME280_pressure;Samples;Min_cycle;Max_cycle;Signal;HPM_P1;HPM_P2
2023/05/16 03:02:36;;;;;;;;;;;20.40;64.90;;;;;;4982237;28;46675;-58
2023/05/16 03:05:03;;;;;;;;;;;20.40;64.90;;;;;;5004894;28;46646;-59
2023/05/16 03:07:28;;;;;;;;;;;20.50;64.90;;;;;;4979010;28;45556;-56
2023/05/16 03:09:54;;;;;;;;;;;20.40;64.70;;;;;;5007442;28;44994;-57
2023/05/16 03:12:19;;;;;;;;;;;20.40;64.70;;;;;;5007680;28;45294;-57
2023/05/16 03:14:45;;;;;;;;;;;20.50;64.80;;;;;;5004136;28;45496;-58
2023/05/16 03:17:13;;;;;;;;;;;20.40;64.70;;;;;;4993421;28;45776;-59
2023/05/16 03:19:39;;;;;;;;;;;20.50;65.00;;;;;;4988086;28;45650;-58
2023/05/16 03:22:04;;;;;;;;;;;20.40;64.80;;;;;;5003606;28;45483;-55
2023/05/16 03:24:30;;;;;;;;;;;20.40;64.80;;;;;;5026307;28;45270;-56
2023/05/16 03:26:56;;;;;;;;;;;20.40;64.90;;;;;;5002029;28;44747;-56
2023/05/16 03:29:21;;;;;;;;;;;20.40;64.80;;;;;;5022654;28;44789;-57
2023/05/16 03:31:47;;;;;;;;;;;20.40;64.70;;;;;;5017100;28;45443;-58
2023/05/16 03:34:12;;;;;;;;;;;20.40;64.90;;;;;;5027484;28;45029;-58
2023/05/16 03:36:38;;;;;;;;;;;20.40;64.80;;;;;;5021034;28;44909;-58
2023/05/16 03:39:03;;;;;;;;;;;20.40;64.90;;;;;;5013790;28;45472;-56
2023/05/16 03:41:29;;;;;;;;;;;20.40;64.80;;;;;;4999403;28;45087;-59
2023/05/16 03:43:54;;;;;;;;;;;20.40;64.90;;;;;;5010797;28;46116;-56
2023/05/16 03:46:20;;;;;;;;;;;20.40;64.80;;;;;;4999617;28;45416;-58
2023/05/16 03:48:46;;;;;;;;;;;20.40;64.80;;;;;;5023642;28;45359;-55
2023/05/16 03:51:11;;;;;;;;;;;20.40;64.80;;;;;;5021483;28;45197;-58
2023/05/16 03:53:37;;;;;;;;;;;20.40;64.90;;;;;;5005134;28;46972;-57
2023/05/16 03:56:02;;;;;;;;;;;20.40;64.80;;;;;;5022238;28;45288;-57
2023/05/16 03:58:28;;;;;;;;;;;20.40;64.80;;;;;;5018288;28;45674;-57
2023/05/16 04:00:53;;;;;;;;;;;20.40;64.90;;;;;;5008215;28;45815;-55
2023/05/16 04:03:19;;;;;;;;;;;20.40;64.90;;;;;;5020279;28;45095;-57
2023/05/16 04:05:45;;;;;;;;;;;20.40;64.90;;;;;;5020977;28;45493;-57
2023/05/16 04:08:10;;;;;;;;;;;20.40;64.90;;;;;;5023870;28;45708;-58
2023/05/16 04:10:36;;;;;;;;;;;20.40;64.90;;;;;;4999390;28;45314;-59
2023/05/16 04:13:01;;;;;;;;;;;20.40;65.00;;;;;;5017827;28;45427;-59
2023/05/16 04:15:27;;;;;;;;;;;20.40;65.00;;;;;;5011663;28;46310;-61
2023/05/16 04:17:52;;;;;;;;;;;20.40;65.00;;;;;;5000426;28;45941;-58
2023/05/16 04:20:18;;;;;;;;;;;20.40;65.00;;;;;;5019799;28;45484;-57
2023/05/16 04:22:46;;;;;;;;;;;20.40;65.20;;;;;;4990949;28;47365;-59
2023/05/16 04:25:13;;;;;;;;;;;20.40;65.00;;;;;;5001841;28;44742;-58
2023/05/16 04:27:38;;;;;;;;;;;20.40;65.30;;;;;;5021396;28;45367;-57
2023/05/16 04:30:07;;;;;;;;;;;20.40;65.00;;;;;;5003514;28;46589;-60
2023/05/16 04:32:35;;;;;;;;;;;20.40;65.20;;;;;;5017493;28;46049;-57
2023/05/16 04:35:01;;;;;;;;;;;20.30;65.00;;;;;;5018207;28;45487;-58
2023/05/16 04:37:26;;;;;;;;;;;20.40;65.10;;;;;;5016083;28;45286;-57
2023/05/16 04:39:53;;;;;;;;;;;20.40;65.80;;;;;;4999668;28;45809;-57
2023/05/16 04:42:18;;;;;;;;;;;20.40;65.00;;;;;;5019186;28;45326;-58
2023/05/16 04:44:46;;;;;;;;;;;20.40;65.10;;;;;;5022036;28;45327;-57
2023/05/16 04:47:12;;;;;;;;;;;20.30;65.00;;;;;;5014228;28;45515;-57
2023/05/16 04:49:37;;;;;;;;;;;20.30;65.00;;;;;;5015749;28;45103;-60
2023/05/16 04:52:03;;;;;;;;;;;20.30;65.00;;;;;;5017535;28;45263;-59
2023/05/16 04:54:29;;;;;;;;;;;20.30;65.00;;;;;;5005190;28;45104;-55
2023/05/16 04:56:54;;;;;;;;;;;20.30;65.30;;;;;;5022212;28;45210;-57
2023/05/16 04:59:20;;;;;;;;;;;20.30;65.00;;;;;;5027367;28;45974;-57
2023/05/16 05:01:46;;;;;;;;;;;20.30;65.10;;;;;;5009798;28;45811;-55
2023/05/16 05:04:11;;;;;;;;;;;20.30;65.10;;;;;;5025824;28;45264;-58
2023/05/16 05:06:37;;;;;;;;;;;20.30;65.00;;;;;;4989647;28;45591;-57
2023/05/16 05:09:04;;;;;;;;;;;20.30;64.90;;;;;;5022496;28;45204;-57
2023/05/16 05:11:30;;;;;;;;;;;20.30;65.00;;;;;;5016213;28;45898;-55
2023/05/16 05:13:55;;;;;;;;;;;20.30;65.00;;;;;;5017486;28;45373;-58
2023/05/16 05:16:21;;;;;;;;;;;20.30;65.00;;;;;;5015449;28;45261;-57
2023/05/16 05:18:46;;;;;;;;;;;20.30;65.10;;;;;;5024561;28;45442;-57
2023/05/16 05:21:12;;;;;;;;;;;20.30;65.10;;;;;;5021878;28;45553;-57
2023/05/16 05:23:37;;;;;;;;;;;20.30;65.10;;;;;;5006804;28;45730;-57
2023/05/16 05:26:03;;;;;;;;;;;20.30;65.10;;;;;;5006699;28;45451;-57
2023/05/16 05:28:28;;;;;;;;;;;20.30;65.00;;;;;;5007612;28;45416;-55
2023/05/16 05:30:53;;;;;;;;;;;20.30;65.10;;;;;;5010287;28;45356;-58
2023/05/16 05:33:19;;;;;;;;;;;20.30;65.10;;;;;;5024438;28;45277;-57
2023/05/16 05:35:44;;;;;;;;;;;20.30;65.10;;;;;;5006229;28;45147;-57
2023/05/16 05:38:10;;;;;;;;;;;20.30;65.00;;;;;;5033926;28;46296;-57
2023/05/16 05:40:36;;;;;;;;;;;20.30;65.00;;;;;;5022476;28;46242;-55
2023/05/16 05:43:01;;;;;;;;;;;20.30;65.00;;;;;;5026514;28;45498;-57
2023/05/16 05:45:27;;;;;;;;;;;20.30;64.90;;;;;;5018481;28;45547;-65
2023/05/16 05:47:53;;;;;;;;;;;20.40;65.00;;;;;;4973256;28;45635;-57
2023/05/16 05:50:18;;;;;;;;;;;20.30;64.90;;;;;;4998942;28;46130;-62
2023/05/16 05:52:44;;;;;;;;;;;20.40;65.00;;;;;;5013350;28;45185;-58
2023/05/16 05:55:09;;;;;;;;;;;20.30;65.00;;;;;;5027330;28;45480;-58
2023/05/16 05:57:35;;;;;;;;;;;20.40;65.00;;;;;;5030154;28;45564;-58
2023/05/16 06:00:00;;;;;;;;;;;20.40;65.00;;;;;;5005970;28;46838;-58
2023/05/16 06:02:26;;;;;;;;;;;20.40;65.00;;;;;;5016526;28;45605;-58
2023/05/16 06:04:51;;;;;;;;;;;20.40;64.90;;;;;;5028152;28;45248;-57
2023/05/16 06:07:17;;;;;;;;;;;20.40;64.80;;;;;;5023135;28;45483;-57
2023/05/16 06:09:42;;;;;;;;;;;20.50;64.80;;;;;;5011901;28;45277;-57
2023/05/16 06:12:08;;;;;;;;;;;20.50;64.80;;;;;;5020086;28;45515;-57
2023/05/16 06:14:33;;;;;;;;;;;20.50;64.60;;;;;;5027559;28;44941;-58
2023/05/16 06:16:59;;;;;;;;;;;20.50;64.50;;;;;;5018275;28;45833;-59
2023/05/16 06:19:25;;;;;;;;;;;20.60;64.50;;;;;;5028966;28;45927;-56
2023/05/16 06:21:50;;;;;;;;;;;20.60;64.40;;;;;;5027106;28;44969;-60
2023/05/16 06:24:16;;;;;;;;;;;20.60;64.40;;;;;;5029695;28;45225;-58
2023/05/16 06:26:41;;;;;;;;;;;20.70;64.40;;;;;;5014012;28;45094;-58
2023/05/16 06:29:07;;;;;;;;;;;20.70;64.30;;;;;;5030610;28;45379;-57
2023/05/16 06:31:32;;;;;;;;;;;20.60;64.20;;;;;;5022489;28;45425;-58
2023/05/16 06:33:57;;;;;;;;;;;20.80;64.30;;;;;;5028596;28;45232;-59
2023/05/16 06:36:23;;;;;;;;;;;20.80;64.20;;;;;;5004666;28;45499;-58
2023/05/16 06:38:49;;;;;;;;;;;20.80;64.20;;;;;;5020770;28;45538;-58
2023/05/16 06:41:15;;;;;;;;;;;20.90;64.20;;;;;;5021910;28;44958;-56
2023/05/16 06:43:40;;;;;;;;;;;20.90;64.00;;;;;;5011348;28;45323;-56
2023/05/16 06:46:06;;;;;;;;;;;20.90;64.00;;;;;;5019350;28;45524;-58
2023/05/16 06:48:31;;;;;;;;;;;21.00;63.90;;;;;;5021702;28;45050;-58
2023/05/16 06:50:57;;;;;;;;;;;21.00;63.90;;;;;;5001918;28;45328;-57
2023/05/16 06:53:22;;;;;;;;;;;21.00;63.90;;;;;;5033130;28;45170;-56
2023/05/16 06:55:48;;;;;;;;;;;21.00;63.90;;;;;;5025873;28;45560;-59
2023/05/16 06:58:13;;;;;;;;;;;21.00;63.90;;;;;;5018388;28;45304;-57
2023/05/16 07:03:20;;;;;;;;;;;21.00;64.00;;;;;;5077155;27;45454;-55
2023/05/16 07:05:46;;;;;;;;;;;21.00;64.00;;;;;;5065534;27;45468;-56
2023/05/16 07:08:11;;;;;;;;;;;21.00;64.00;;;;;;5076935;27;45504;-56
2023/05/16 07:10:37;;;;;;;;;;;21.00;64.00;;;;;;5064069;27;44983;-57
2023/05/16 07:13:03;;;;;;;;;;;21.10;64.00;;;;;;5068039;27;46189;-58
2023/05/16 07:15:29;;;;;;;;;;;21.10;64.10;;;;;;5058671;27;45390;-57
2023/05/16 07:17:56;;;;;;;;;;;21.10;64.00;;;;;;5060793;27;45420;-58
2023/05/16 07:20:21;;;;;;;;;;;21.10;64.00;;;;;;5066365;27;45555;-57
2023/05/16 07:22:47;;;;;;;;;;;21.10;64.00;;;;;;5064935;27;45366;-56
2023/05/16 07:25:13;;;;;;;;;;;21.20;64.10;;;;;;5049577;27;45705;-58
2023/05/16 07:27:43;;;;;;;;;;;21.20;64.20;;;;;;5070860;27;44725;-58
2023/05/16 07:30:14;;;;;;;;;;;21.20;64.00;;;;;;5063978;27;45507;-62
2023/05/16 07:32:40;;;;;;;;;;;21.20;63.90;;;;;;5078381;27;45930;-58
2023/05/16 07:35:14;;;;;;;;;;;21.20;63.90;;;;;;5079538;27;45753;-57
2023/05/16 07:37:41;;;;;;;;;;;21.20;64.10;;;;;;5090980;27;45498;-56
2023/05/16 07:40:07;;;;;;;;;;;21.30;64.00;;;;;;5087865;27;45777;-59
2023/05/16 07:42:32;;;;;;;;;;;21.20;63.90;;;;;;5076142;27;47000;-58
2023/05/16 07:44:57;;;;;;;;;;;21.30;63.90;;;;;;5083325;27;45404;-56
2023/05/16 07:47:23;;;;;;;;;;;21.30;63.80;;;;;;5077874;27;45482;-58
2023/05/16 07:49:48;;;;;;;;;;;21.40;63.70;;;;;;5088033;27;45569;-55
2023/05/16 07:52:14;;;;;;;;;;;21.40;63.80;;;;;;5088179;27;45724;-56
2023/05/16 07:54:39;;;;;;;;;;;21.40;63.90;;;;;;5086401;27;45036;-56
2023/05/16 07:57:06;;;;;;;;;;;21.40;64.60;;;;;;5080482;27;45417;-58
2023/05/16 07:59:31;;;;;;;;;;;21.40;63.80;;;;;;5089999;27;45520;-58
2023/05/16 08:01:56;;;;;;;;;;;21.50;63.80;;;;;;5057212;27;44946;-56
2023/05/16 08:04:22;;;;;;;;;;;21.50;63.80;;;;;;5070219;27;46533;-55
2023/05/16 08:06:48;;;;;;;;;;;21.50;63.70;;;;;;5081618;27;45247;-58
2023/05/16 08:09:13;;;;;;;;;;;21.50;63.80;;;;;;5091964;27;45207;-59
2023/05/16 08:11:39;;;;;;;;;;;21.50;63.70;;;;;;5082380;27;45270;-56
2023/05/16 08:14:04;;;;;;;;;;;21.50;63.70;;;;;;5076427;27;44733;-59
2023/05/16 08:16:30;;;;;;;;;;;21.60;63.80;;;;;;5060572;27;45641;-55
2023/05/16 08:18:55;;;;;;;;;;;21.60;63.80;;;;;;5067658;27;46793;-57
2023/05/16 08:21:21;;;;;;;;;;;21.60;63.80;;;;;;5071671;27;46108;-58
2023/05/16 08:23:46;;;;;;;;;;;21.60;63.80;;;;;;5082520;27;44801;-57
2023/05/16 08:26:12;;;;;;;;;;;21.60;63.60;;;;;;5067149;27;46737;-58
2023/05/16 08:28:37;;;;;;;;;;;21.60;63.60;;;;;;5074582;27;45375;-58
2023/05/16 08:31:03;;;;;;;;;;;21.70;63.60;;;;;;5059434;27;45972;-58
2023/05/16 08:33:28;;;;;;;;;;;21.70;63.60;;;;;;5081550;27;45475;-58
2023/05/16 08:35:54;;;;;;;;;;;21.70;63.60;;;;;;5049069;27;45280;-58
2023/05/16 08:38:19;;;;;;;;;;;21.70;63.60;;;;;;5072740;27;45381;-59
2023/05/16 08:40:45;;;;;;;;;;;21.70;63.60;;;;;;5061898;27;45950;-58
2023/05/16 08:43:10;;;;;;;;;;;21.70;63.60;;;;;;5073311;27;45199;-57
2023/05/16 08:45:36;;;;;;;;;;;21.80;63.70;;;;;;5063701;27;45514;-58
2023/05/16 08:48:02;;;;;;;;;;;21.70;63.60;;;;;;5062012;27;45560;-55
2023/05/16 08:50:28;;;;;;;;;;;21.80;63.70;;;;;;5046644;27;45895;-58
2023/05/16 08:52:54;;;;;;;;;;;21.80;63.70;;;;;;5051751;27;45555;-58
2023/05/16 08:55:21;;;;;;;;;;;21.80;63.60;;;;;;5043890;27;45879;-57
2023/05/16 08:57:47;;;;;;;;;;;21.80;63.70;;;;;;5075540;27;45707;-58
2023/05/16 09:00:13;;;;;;;;;;;21.80;63.70;;;;;;5055232;27;46061;-58
2023/05/16 09:02:43;;;;;;;;;;;21.80;63.60;;;;;;5060367;27;44959;-58
2023/05/16 09:05:10;;;;;;;;;;;21.80;63.80;;;;;;5047717;27;45047;-58
2023/05/16 09:07:35;;;;;;;;;;;21.80;63.70;;;;;;5069306;27;45323;-56
2023/05/16 09:10:01;;;;;;;;;;;21.80;63.70;;;;;;5059941;27;45987;-57
2023/05/16 09:12:26;;;;;;;;;;;21.80;64.00;;;;;;5073537;27;44568;-55
2023/05/16 09:14:52;;;;;;;;;;;21.80;63.70;;;;;;5071136;27;45357;-56
2023/05/16 09:17:17;;;;;;;;;;;21.80;63.70;;;;;;5060290;27;46192;-56
2023/05/16 09:19:43;;;;;;;;;;;21.80;63.70;;;;;;5068154;27;45498;-57
2023/05/16 09:22:12;;;;;;;;;;;21.80;63.80;;;;;;5073954;27;45160;-57
2023/05/16 09:24:38;;;;;;;;;;;21.80;63.70;;;;;;5073168;27;45313;-57
2023/05/16 09:27:08;;;;;;;;;;;21.80;63.70;;;;;;5050292;27;45131;-58
2023/05/16 09:29:33;;;;;;;;;;;21.80;63.90;;;;;;5074580;27;46093;-58
2023/05/16 09:32:11;;;;;;;;;;;21.80;63.80;;;;;;5060517;27;45424;-57
2023/05/16 09:34:38;;;;;;;;;;;21.80;63.70;;;;;;5071241;27;45117;-56
2023/05/16 09:37:04;;;;;;;;;;;21.80;63.70;;;;;;5069290;27;45043;-59
2023/05/16 09:39:29;;;;;;;;;;;21.90;63.70;;;;;;5063850;27;46168;-58
2023/05/16 09:41:57;;;;;;;;;;;21.90;63.70;;;;;;5063116;27;45014;-56
2023/05/16 09:44:22;;;;;;;;;;;21.80;63.60;;;;;;5072161;27;44998;-58
2023/05/16 09:46:48;;;;;;;;;;;21.90;63.90;;;;;;5049516;27;45469;-58
2023/05/16 09:49:13;;;;;;;;;;;21.80;63.90;;;;;;5051197;27;46207;-60
2023/05/16 09:51:40;;;;;;;;;;;21.90;63.90;;;;;;5052659;28;45338;-59
2023/05/16 09:54:08;;;;;;;;;;;21.90;63.80;;;;;;5067896;27;45556;-59
2023/05/16 09:56:38;;;;;;;;;;;21.80;63.70;;;;;;5033841;27;46118;-60
2023/05/16 09:59:08;;;;;;;;;;;21.90;63.90;;;;;;5053213;27;46032;-58
2023/05/16 10:01:34;;;;;;;;;;;21.90;63.80;;;;;;5054326;27;45427;-59
2023/05/16 10:04:00;;;;;;;;;;;21.90;63.90;;;;;;5065061;27;45311;-59
2023/05/16 10:06:25;;;;;;;;;;;21.90;63.90;;;;;;5063607;27;45594;-58
2023/05/16 10:08:51;;;;;;;;;;;21.90;63.80;;;;;;5049194;27;46132;-55
2023/05/16 10:11:16;;;;;;;;;;;21.90;63.80;;;;;;5041126;27;45571;-57
2023/05/16 10:13:43;;;;;;;;;;;21.90;63.80;;;;;;5073630;27;45324;-56
2023/05/16 10:16:10;;;;;;;;;;;21.90;63.80;;;;;;5056757;27;45356;-58
2023/05/16 10:18:35;;;;;;;;;;;21.90;63.80;;;;;;5056147;27;46159;-58
2023/05/16 10:21:03;;;;;;;;;;;21.90;63.90;;;;;;5049277;27;44990;-57
2023/05/16 10:23:29;;;;;;;;;;;21.90;63.90;;;;;;5072662;27;45526;-59
2023/05/16 10:25:54;;;;;;;;;;;21.90;63.70;;;;;;5036856;27;45682;-57
2023/05/16 10:28:20;;;;;;;;;;;21.90;63.70;;;;;;5051393;27;45558;-58
2023/05/16 10:30:46;;;;;;;;;;;21.90;63.70;;;;;;5041923;28;45499;-58
2023/05/16 10:33:15;;;;;;;;;;;21.90;63.70;;;;;;5055719;27;45232;-58
2023/05/16 10:35:40;;;;;;;;;;;21.90;63.80;;;;;;5065034;27;45363;-58
2023/05/16 10:38:06;;;;;;;;;;;21.90;63.70;;;;;;5072812;27;45448;-57
2023/05/16 10:40:32;;;;;;;;;;;21.90;63.80;;;;;;5048842;27;45691;-58
2023/05/16 10:42:58;;;;;;;;;;;21.80;63.70;;;;;;5072404;27;44951;-58
2023/05/16 10:45:23;;;;;;;;;;;21.80;63.80;;;;;;5063780;27;45498;-57
2023/05/16 10:47:58;;;;;;;;;;;21.80;63.70;;;;;;5060222;27;46412;-54
2023/05/16 10:50:36;;;;;;;;;;;21.90;63.80;;;;;;5062788;27;45173;-58
2023/05/16 10:53:12;;;;;;;;;;;21.80;63.70;;;;;;5070903;27;45383;-58
2023/05/16 10:55:38;;;;;;;;;;;21.90;63.90;;;;;;5041597;27;45368;-59
2023/05/16 10:58:03;;;;;;;;;;;21.80;63.90;;;;;;5089189;27;47723;-58
2023/05/16 11:00:29;;;;;;;;;;;21.90;63.90;;;;;;5083843;27;45842;-55
2023/05/16 11:02:54;;;;;;;;;;;21.80;63.90;;;;;;5070090;27;45697;-58
2023/05/16 11:05:21;;;;;;;;;;;21.90;63.90;;;;;;5064784;27;45232;-58
2023/05/16 11:07:46;;;;;;;;;;;21.90;63.90;;;;;;5093703;27;45549;-58
2023/05/16 11:10:15;;;;;;;;;;;21.90;63.90;;;;;;5090328;27;45485;-59
2023/05/16 11:12:47;;;;;;;;;;;21.80;63.80;;;;;;5088004;27;45241;-58
2023/05/16 11:15:26;;;;;;;;;;;21.90;63.90;;;;;;5083203;27;45537;-59
2023/05/16 11:18:03;;;;;;;;;;;21.90;63.90;;;;;;5076061;27;46979;-59
2023/05/16 11:20:30;;;;;;;;;;;21.90;63.90;;;;;;5074401;27;45551;-55
2023/05/16 11:23:14;;;;;;;;;;;21.90;64.10;;;;;;5093182;27;44688;-57
2023/05/16 11:25:40;;;;;;;;;;;21.90;64.00;;;;;;5084545;27;45289;-58
2023/05/16 11:28:05;;;;;;;;;;;21.90;64.30;;;;;;5085941;27;50670;-56
2023/05/16 11:30:33;;;;;;;;;;;21.90;64.20;;;;;;5064575;27;45299;-57
2023/05/16 11:32:59;;;;;;;;;;;21.90;64.10;;;;;;5094403;27;45279;-58
2023/05/16 11:35:24;;;;;;;;;;;21.90;63.90;;;;;;5074930;27;45974;-57
2023/05/16 11:37:50;;;;;;;;;;;21.90;63.90;;;;;;5081133;27;47120;-57
2023/05/16 11:40:16;;;;;;;;;;;21.90;63.90;;;;;;5080058;27;45691;-57
2023/05/16 11:42:46;;;;;;;;;;;22.00;64.00;;;;;;5090054;27;45433;-56
2023/05/16 11:45:15;;;;;;;;;;;22.00;63.90;;;;;;5075129;27;44764;-58
2023/05/16 11:47:41;;;;;;;;;;;21.90;63.90;;;;;;5083522;27;45572;-56
2023/05/16 11:50:10;;;;;;;;;;;22.00;63.90;;;;;;5089534;27;45039;-61
2023/05/16 11:52:36;;;;;;;;;;;21.90;64.00;;;;;;5087010;27;44641;-60
2023/05/16 11:55:11;;;;;;;;;;;22.00;64.00;;;;;;5096982;27;46105;-56
2023/05/16 11:57:40;;;;;;;;;;;21.90;64.00;;;;;;5097701;27;45071;-58
2023/05/16 12:00:10;;;;;;;;;;;22.00;63.60;;;;;;5074515;27;45192;-62
2023/05/16 12:02:35;;;;;;;;;;;22.00;63.80;;;;;;5073624;27;45473;-56
2023/05/16 12:05:08;;;;;;;;;;;22.00;63.70;;;;;;5089698;27;45552;-56
2023/05/16 12:07:34;;;;;;;;;;;22.00;63.70;;;;;;5079436;27;46107;-54
2023/05/16 12:10:03;;;;;;;;;;;22.00;63.80;;;;;;5080017;27;45287;-56
2023/05/16 12:12:29;;;;;;;;;;;22.00;63.90;;;;;;5089037;27;44729;-57
2023/05/16 12:14:55;;;;;;;;;;;22.00;63.50;;;;;;5102603;27;45346;-57
2023/05/16 12:17:21;;;;;;;;;;;22.00;63.50;;;;;;5097127;27;46004;-54
2023/05/16 12:19:46;;;;;;;;;;;22.00;63.80;;;;;;5105418;27;45765;-58
2023/05/16 12:22:16;;;;;;;;;;;22.00;63.50;;;;;;5072398;27;45395;-58
2023/05/16 12:24:41;;;;;;;;;;;22.00;63.60;;;;;;5093058;27;45152;-57
2023/05/16 12:27:07;;;;;;;;;;;22.00;63.70;;;;;;5083589;27;46068;-58
2023/05/16 12:29:33;;;;;;;;;;;22.00;63.60;;;;;;5092425;27;44758;-57
2023/05/16 12:31:58;;;;;;;;;;;22.00;63.70;;;;;;5078325;27;45658;-58
2023/05/16 12:34:26;;;;;;;;;;;22.00;63.70;;;;;;5090863;27;46875;-56
2023/05/16 12:36:53;;;;;;;;;;;22.10;63.90;;;;;;5086397;27;45374;-57
2023/05/16 12:39:19;;;;;;;;;;;22.10;63.50;;;;;;5090251;27;46380;-59
2023/05/16 12:41:44;;;;;;;;;;;22.10;64.30;;;;;;5087959;27;45338;-58
2023/05/16 12:44:15;;;;;;;;;;;22.10;63.40;;;;;;5096980;27;45512;-57
2023/05/16 12:46:44;;;;;;;;;;;22.10;63.40;;;;;;5085746;27;46012;-57
2023/05/16 12:49:10;;;;;;;;;;;22.10;63.40;;;;;;5098877;27;45375;-58
2023/05/16 12:51:36;;;;;;;;;;;22.10;63.40;;;;;;5087460;27;45187;-57
2023/05/16 12:54:08;;;;;;;;;;;22.10;63.40;;;;;;5106566;27;45122;-58
2023/05/16 12:56:34;;;;;;;;;;;22.10;63.40;;;;;;5103089;27;45471;-59
2023/05/16 12:59:00;;;;;;;;;;;22.10;63.30;;;;;;5093923;27;45239;-60
2023/05/16 13:01:25;;;;;;;;;;;22.10;63.30;;;;;;5075972;27;45479;-57
2023/05/16 13:03:51;;;;;;;;;;;22.10;63.30;;;;;;5084593;27;45199;-59
2023/05/16 13:06:16;;;;;;;;;;;22.10;64.20;;;;;;5088788;27;45584;-58
2023/05/16 13:08:42;;;;;;;;;;;22.10;63.40;;;;;;5093713;27;44783;-57
2023/05/16 13:11:08;;;;;;;;;;;22.10;63.30;;;;;;5089034;27;45358;-57
2023/05/16 13:13:34;;;;;;;;;;;22.10;63.30;;;;;;5091782;27;45807;-59
2023/05/16 13:16:00;;;;;;;;;;;22.20;63.50;;;;;;5086999;27;45216;-59
2023/05/16 13:18:25;;;;;;;;;;;22.10;63.30;;;;;;5089290;27;45709;-59
2023/05/16 13:20:51;;;;;;;;;;;22.20;63.50;;;;;;5088880;27;45129;-56
2023/05/16 13:23:17;;;;;;;;;;;22.20;63.50;;;;;;5095614;27;44722;-57
2023/05/16 13:25:42;;;;;;;;;;;22.20;64.20;;;;;;5086037;27;45876;-58
2023/05/16 13:28:08;;;;;;;;;;;22.20;63.40;;;;;;5095143;27;45256;-56
2023/05/16 13:30:33;;;;;;;;;;;22.20;63.50;;;;;;5096931;27;45317;-57
2023/05/16 13:32:59;;;;;;;;;;;22.20;63.30;;;;;;5081175;27;45422;-56
2023/05/16 13:35:25;;;;;;;;;;;22.20;63.00;;;;;;5086903;27;46128;-57
2023/05/16 13:37:50;;;;;;;;;;;22.20;63.10;;;;;;5098114;27;44622;-57
2023/05/16 13:40:16;;;;;;;;;;;22.20;63.10;;;;;;5084590;27;45126;-58
2023/05/16 13:42:41;;;;;;;;;;;22.20;63.00;;;;;;5100290;27;45299;-58
2023/05/16 13:45:07;;;;;;;;;;;22.30;63.20;;;;;;5088271;27;46087;-55
2023/05/16 13:47:33;;;;;;;;;;;22.20;63.10;;;;;;5085948;27;45152;-58
2023/05/16 13:50:08;;;;;;;;;;;22.20;63.00;;;;;;5084539;27;44943;-54
2023/05/16 13:52:33;;;;;;;;;;;22.30;63.10;;;;;;5090527;27;44890;-57
2023/05/16 13:54:59;;;;;;;;;;;22.30;63.10;;;;;;5090961;27;45889;-57
2023/05/16 13:57:26;;;;;;;;;;;22.30;62.90;;;;;;5103248;27;45229;-56
2023/05/16 13:59:51;;;;;;;;;;;22.30;62.80;;;;;;5089495;27;44991;-57
2023/05/16 14:02:17;;;;;;;;;;;22.30;62.90;;;;;;5075721;27;45651;-56
2023/05/16 14:04:42;;;;;;;;;;;22.30;62.80;;;;;;5093479;27;47075;-57
2023/05/16 14:07:08;;;;;;;;;;;22.30;62.90;;;;;;5083312;27;45223;-57
2023/05/16 14:09:34;;;;;;;;;;;22.30;62.90;;;;;;5093861;27;45228;-57
2023/05/16 14:12:02;;;;;;;;;;;22.30;62.80;;;;;;5088741;27;45421;-54
2023/05/16 14:14:28;;;;;;;;;;;22.30;62.60;;;;;;5091929;27;45933;-57
2023/05/16 14:16:53;;;;;;;;;;;22.30;62.70;;;;;;5083090;27;46274;-55
2023/05/16 14:19:19;;;;;;;;;;;22.30;62.80;;;;;;5090631;27;45973;-54
2023/05/16 14:21:44;;;;;;;;;;;22.30;62.70;;;;;;5090269;27;45177;-60
2023/05/16 14:24:10;;;;;;;;;;;22.30;62.60;;;;;;5094873;27;46122;-58
2023/05/16 14:26:36;;;;;;;;;;;22.30;62.90;;;;;;5084397;27;46513;-55
2023/05/16 14:29:01;;;;;;;;;;;22.30;63.00;;;;;;5095333;27;45293;-57
2023/05/16 14:31:30;;;;;;;;;;;22.30;62.80;;;;;;5077297;27;45156;-58
2023/05/16 14:33:56;;;;;;;;;;;22.30;62.80;;;;;;5091555;27;46983;-57
2023/05/16 14:36:21;;;;;;;;;;;22.30;62.60;;;;;;5088431;27;46095;-55
2023/05/16 14:38:47;;;;;;;;;;;22.30;62.60;;;;;;5086049;27;45383;-57
2023/05/16 14:41:13;;;;;;;;;;;22.30;62.50;;;;;;5083344;27;45331;-57
2023/05/16 14:43:38;;;;;;;;;;;22.30;62.60;;;;;;5086869;27;45185;-54
2023/05/16 14:46:04;;;;;;;;;;;22.30;62.70;;;;;;5082591;27;45245;-56
2023/05/16 14:48:30;;;;;;;;;;;22.40;62.60;;;;;;5090001;27;45298;-57
2023/05/16 14:50:55;;;;;;;;;;;22.30;62.50;;;;;;5088610;27;45326;-55
2023/05/16 14:53:21;;;;;;;;;;;22.40;62.70;;;;;;5093336;27;45919;-57
2023/05/16 14:55:47;;;;;;;;;;;22.30;62.60;;;;;;5086182;27;45295;-57
2023/05/16 14:58:13;;;;;;;;;;;22.40;62.70;;;;;;5091139;27;45639;-57
2023/05/16 15:00:41;;;;;;;;;;;22.40;62.80;;;;;;5064262;27;45177;-57
2023/05/16 15:03:07;;;;;;;;;;;22.40;62.60;;;;;;5082089;27;46145;-59
2023/05/16 15:05:32;;;;;;;;;;;22.40;62.70;;;;;;5088774;27;46071;-57
2023/05/16 15:07:59;;;;;;;;;;;22.40;62.60;;;;;;5103781;27;45309;-54
2023/05/16 15:10:24;;;;;;;;;;;22.40;62.60;;;;;;5069432;27;45228;-56
2023/05/16 15:12:50;;;;;;;;;;;22.40;62.40;;;;;;5093325;27;45943;-58
2023/05/16 15:15:15;;;;;;;;;;;22.40;62.40;;;;;;5090412;27;45120;-58
2023/05/16 15:17:41;;;;;;;;;;;22.40;62.60;;;;;;5071419;27;44990;-56
2023/05/16 15:20:08;;;;;;;;;;;22.40;62.60;;;;;;5081769;27;45377;-60
2023/05/16 15:22:37;;;;;;;;;;;22.40;62.50;;;;;;5093438;27;45894;-57
2023/05/16 15:25:06;;;;;;;;;;;22.40;62.40;;;;;;5076052;27;45349;-59
2023/05/16 15:27:31;;;;;;;;;;;22.40;62.50;;;;;;5094105;27;45323;-56
2023/05/16 15:29:57;;;;;;;;;;;22.40;62.40;;;;;;5097728;27;45625;-57
2023/05/16 15:32:23;;;;;;;;;;;22.40;62.40;;;;;;5076295;27;46760;-54
2023/05/16 15:34:48;;;;;;;;;;;22.40;61.70;;;;;;5098585;27;45188;-56
2023/05/16 15:37:13;;;;;;;;;;;22.30;61.30;;;;;;5062337;27;45526;-60
2023/05/16 15:39:39;;;;;;;;;;;22.30;61.50;;;;;;5090184;27;45472;-56
2023/05/16 15:42:05;;;;;;;;;;;22.30;62.00;;;;;;5095256;27;46174;-57
2023/05/16 15:44:30;;;;;;;;;;;22.30;62.40;;;;;;5096660;27;45197;-57
2023/05/16 15:46:56;;;;;;;;;;;22.30;63.10;;;;;;5094376;27;45490;-57
2023/05/16 15:49:21;;;;;;;;;;;22.30;62.20;;;;;;5090882;27;45612;-59
2023/05/16 15:51:47;;;;;;;;;;;22.30;62.10;;;;;;5091538;27;46494;-56
2023/05/16 15:54:12;;;;;;;;;;;22.30;62.00;;;;;;5096102;27;44880;-56
2023/05/16 15:56:38;;;;;;;;;;;22.30;62.10;;;;;;5088879;27;45255;-58
2023/05/16 15:59:03;;;;;;;;;;;22.30;62.10;;;;;;5095720;27;45250;-56
2023/05/16 16:01:29;;;;;;;;;;;22.30;62.20;;;;;;5079114;27;46913;-55
2023/05/16 16:03:54;;;;;;;;;;;22.30;62.20;;;;;;5089462;27;45936;-56
2023/05/16 16:06:20;;;;;;;;;;;22.20;62.20;;;;;;5089105;27;45268;-57
2023/05/16 16:08:45;;;;;;;;;;;22.20;62.20;;;;;;5095234;27;44800;-55
2023/05/16 16:11:11;;;;;;;;;;;22.20;62.20;;;;;;5086831;27;46118;-56
2023/05/16 16:13:37;;;;;;;;;;;22.20;62.20;;;;;;5088539;27;45005;-56
2023/05/16 16:16:02;;;;;;;;;;;22.20;62.20;;;;;;5086051;27;45493;-57
2023/05/16 16:18:28;;;;;;;;;;;22.10;62.20;;;;;;5092301;27;44771;-56
2023/05/16 16:20:53;;;;;;;;;;;22.10;62.30;;;;;;5089916;27;46383;-59
2023/05/16 16:23:19;;;;;;;;;;;22.10;62.40;;;;;;5098020;27;45243;-57
2023/05/16 16:25:44;;;;;;;;;;;22.10;62.50;;;;;;5090918;27;45217;-55
2023/05/16 16:28:10;;;;;;;;;;;22.10;62.40;;;;;;5093527;27;45846;-55
2023/05/16 16:30:35;;;;;;;;;;;22.10;62.60;;;;;;5079806;27;46072;-55
2023/05/16 16:33:01;;;;;;;;;;;22.10;62.70;;;;;;5071884;27;45409;-56
2023/05/16 16:35:26;;;;;;;;;;;22.10;62.50;;;;;;5083130;27;45531;-55
2023/05/16 16:37:52;;;;;;;;;;;22.00;62.60;;;;;;5088759;27;44881;-54
2023/05/16 16:40:18;;;;;;;;;;;22.00;62.60;;;;;;5077997;27;46023;-59
2023/05/16 16:42:43;;;;;;;;;;;22.00;62.70;;;;;;5069473;27;44708;-58
2023/05/16 16:45:09;;;;;;;;;;;22.00;62.70;;;;;;5088425;27;45758;-60
2023/05/16 16:47:35;;;;;;;;;;;22.00;62.80;;;;;;5056704;27;44971;-58
2023/05/16 16:50:00;;;;;;;;;;;22.00;62.80;;;;;;5087048;27;46131;-58
2023/05/16 16:52:26;;;;;;;;;;;21.90;62.90;;;;;;5078173;27;45612;-55
2023/05/16 16:54:51;;;;;;;;;;;21.90;62.90;;;;;;5087663;27;45675;-56
2023/05/16 16:57:17;;;;;;;;;;;21.90;63.00;;;;;;5084153;27;45349;-56
2023/05/16 16:59:45;;;;;;;;;;;21.90;63.00;;;;;;5088287;27;46204;-54
2023/05/16 17:02:13;;;;;;;;;;;21.90;62.90;;;;;;5071182;27;44969;-54
2023/05/16 17:04:39;;;;;;;;;;;21.90;63.20;;;;;;5085041;27;45444;-56
2023/05/16 17:07:04;;;;;;;;;;;21.80;63.10;;;;;;5083400;27;45700;-56
2023/05/16 17:09:30;;;;;;;;;;;21.80;63.10;;;;;;5089550;27;46175;-53
2023/05/16 17:11:55;;;;;;;;;;;21.90;63.10;;;;;;5083266;27;44757;-57
2023/05/16 17:14:21;;;;;;;;;;;21.80;63.10;;;;;;5088856;27;45570;-55